Portada
METAR-TAF:

METAR-TAF

Aeropuertos :

Yazd, Irán

latitud: 31-54N, longitud: 054-24E, altitud: 1238 m

Observación

El informe se hizo hace 47 minutos, a las 05:00 UTC
Viento 10 kt del este-sureste
Temperatura 20°C
Humedad 32%
Presión 1013 hPa
Visibilidad 10 km o más
Escasas nubes a una altura de 4000 ft
Nubes dispersas a una altura de 9000 ft
Cielo nuboso a una altura de 19000 ft

METAR: OIYY 250500Z 11010KT 9999 FEW040 SCT090 BKN190 20/03 Q1013

Hora: 10:17 (05:47 UTC)


TAF: falta

Observaciones y pronósticos meteorológicos de más de 4000 aeropuertos (mensajes METAR y TAF).

Los puntos amarillos y rojos representan las estaciones disponibles.

Ponga el ratón en el punto deseado para ver el nombre de la estación.

Haga clic para ver las observaciones y los pronósticos meteorológicos.

Para cambiar el mapa : haga clic en los botones verdes con una cruz de color negro para hacer un zoom, en el botón verde con un guión para alejar o en las flechas verdes para mapas adyacentes.


METAR-TAF: